Terminal Aerodrome Forecast
Issued by NWS

Home | Current Version | Previous Version | Text Only | Print | Product List | Glossary On
Versions: 1 2 3 4 5 6 7 8 9 10 11 12 13
000
FTUS46 KMTR 290536
TAFSTS
TAF
KSTS 290536Z 2906/3006 15004KT P6SM SKC
     FM291200 00000KT 6SM BR SKC
     FM291700 VRB03KT P6SM SKC
     FM291900 20009KT P6SM SKC
     FM300300 16005KT P6SM SKC=

USA.gov is the U.S. government's official web portal to all federal, state and local government web resources and services.